createdAt,value
2023-03-15T00:00:26.937Z,20.23
2023-03-15T00:03:16.007Z,20.27
2023-03-15T00:06:04.205Z,20.26
2023-03-15T00:08:46.911Z,20.21
2023-03-15T00:11:31.927Z,20.13
2023-03-15T00:14:20.883Z,20.11
2023-03-15T00:17:09.230Z,20.13
2023-03-15T00:19:51.968Z,20.20
2023-03-15T00:22:40.136Z,20.21
2023-03-15T00:25:23.252Z,20.15
2023-03-15T00:28:13.213Z,20.03
2023-03-15T00:30:56.063Z,20.00
2023-03-15T00:33:45.332Z,19.93
2023-03-15T00:36:30.906Z,19.94
2023-03-15T00:39:20.340Z,19.93
2023-03-15T00:42:04.862Z,19.98
2023-03-15T00:44:59.768Z,20.06
2023-03-15T00:47:48.871Z,20.05
2023-03-15T00:50:31.259Z,19.99
2023-03-15T00:53:19.930Z,20.00
2023-03-15T00:56:02.934Z,19.93
2023-03-15T00:58:51.926Z,19.90
2023-03-15T01:01:37.234Z,19.88
2023-03-15T01:04:25.921Z,19.84
2023-03-15T01:07:08.626Z,19.76
2023-03-15T01:09:59.872Z,19.73
2023-03-15T01:12:49.948Z,19.81
2023-03-15T01:15:38.190Z,19.81
2023-03-15T01:18:20.911Z,19.82
2023-03-15T01:21:03.123Z,19.80
2023-03-15T01:23:52.952Z,19.83
2023-03-15T01:26:41.168Z,19.89
2023-03-15T01:29:25.900Z,19.90
2023-03-15T01:32:10.217Z,19.90
2023-03-15T01:34:58.863Z,20.00
2023-03-15T01:37:49.112Z,20.02
2023-03-15T01:40:31.177Z,20.06
2023-03-15T01:43:28.903Z,20.09
2023-03-15T01:46:26.295Z,20.16
2023-03-15T01:49:38.948Z,20.22
2023-03-15T01:52:28.210Z,20.28
2023-03-15T01:55:26.920Z,20.36
2023-03-15T01:58:20.228Z,20.42
2023-03-15T02:01:10.992Z,20.52
2023-03-15T02:04:00.252Z,20.63
2023-03-15T02:06:55.903Z,20.76
2023-03-15T02:10:09.936Z,20.91
2023-03-15T02:13:00.577Z,21.13
2023-03-15T02:15:53.863Z,21.21
2023-03-15T02:18:43.245Z,21.49
2023-03-15T02:21:43.940Z,21.67
2023-03-15T02:24:45.048Z,22.08
2023-03-15T02:27:38.993Z,22.61
2023-03-15T02:30:23.196Z,23.05
2023-03-15T02:33:15.863Z,23.57
2023-03-15T02:35:58.264Z,24.07
2023-03-15T02:38:46.940Z,24.47
2023-03-15T02:41:46.290Z,24.65
2023-03-15T02:44:40.878Z,24.85
2023-03-15T02:47:35.247Z,24.50
2023-03-15T02:50:17.861Z,24.45
2023-03-15T02:53:08.161Z,24.87
2023-03-15T02:55:50.917Z,25.01
2023-03-15T02:58:39.215Z,25.13
2023-03-15T03:01:24.028Z,25.00
2023-03-15T03:04:13.146Z,25.32
2023-03-15T03:06:55.972Z,25.86
2023-03-15T03:09:46.484Z,25.99
2023-03-15T03:12:36.912Z,25.50
2023-03-15T03:15:25.158Z,25.84
2023-03-15T03:18:07.928Z,25.66
2023-03-15T03:20:56.902Z,25.47
2023-03-15T03:23:41.276Z,25.54
2023-03-15T03:26:29.944Z,25.50
2023-03-15T03:29:19.840Z,25.55
2023-03-15T03:32:04.056Z,25.48
2023-03-15T03:34:55.882Z,25.55
2023-03-15T03:37:38.391Z,26.32
2023-03-15T03:40:37.930Z,26.15
2023-03-15T03:43:27.082Z,26.48
2023-03-15T03:46:16.010Z,26.52
2023-03-15T03:49:01.378Z,26.38
2023-03-15T03:51:49.828Z,26.16
2023-03-15T03:54:33.356Z,26.54
2023-03-15T03:57:23.159Z,26.63
2023-03-15T04:00:12.854Z,26.60
2023-03-15T04:02:55.965Z,26.60
2023-03-15T04:05:47.219Z,27.02
2023-03-15T04:08:33.847Z,26.78
2023-03-15T04:11:26.570Z,26.97
2023-03-15T04:14:13.574Z,27.39
2023-03-15T04:17:06.045Z,27.34
2023-03-15T04:19:51.258Z,27.73
2023-03-15T04:22:45.801Z,27.64
2023-03-15T04:25:36.853Z,27.52
2023-03-15T04:28:51.986Z,27.27
2023-03-15T04:31:54.766Z,27.70
2023-03-15T04:35:07.860Z,28.19
2023-03-15T04:38:12.794Z,27.94
2023-03-15T04:41:19.704Z,28.39
2023-03-15T04:44:22.624Z,28.66
2023-03-15T04:47:29.933Z,28.77
2023-03-15T04:50:31.819Z,28.93
2023-03-15T04:53:37.012Z,28.89
2023-03-15T04:56:47.078Z,28.75
2023-03-15T04:59:50.234Z,28.60
2023-03-15T05:03:02.990Z,28.67
2023-03-15T05:06:05.247Z,28.82
2023-03-15T05:09:22.560Z,28.99
2023-03-15T05:12:44.941Z,28.91
2023-03-15T05:15:55.834Z,29.31
2023-03-15T05:18:59.157Z,29.27
2023-03-15T05:22:18.149Z,29.41
2023-03-15T05:25:32.046Z,29.92
2023-03-15T05:28:55.153Z,30.23
2023-03-15T05:31:47.053Z,29.83
2023-03-15T05:35:03.077Z,30.13
2023-03-15T05:38:16.864Z,30.80
2023-03-15T05:41:30.092Z,30.53
2023-03-15T05:44:44.012Z,30.66
2023-03-15T05:47:55.001Z,30.86
2023-03-15T05:50:47.110Z,31.02
2023-03-15T05:53:56.349Z,30.91
2023-03-15T05:56:54.558Z,31.37
2023-03-15T06:00:23.757Z,30.81
2023-03-15T06:03:15.836Z,30.65
2023-03-15T06:06:16.232Z,30.44
2023-03-15T06:08:58.832Z,30.88
2023-03-15T06:11:47.734Z,30.90
2023-03-15T06:14:29.811Z,30.76
2023-03-15T06:17:22.696Z,30.93
2023-03-15T06:20:05.814Z,30.93
2023-03-15T06:22:55.689Z,30.91
2023-03-15T06:25:48.966Z,30.97
2023-03-15T06:28:37.679Z,31.05
2023-03-15T06:31:28.699Z,30.85
2023-03-15T06:34:21.804Z,30.62
2023-03-15T06:37:03.621Z,30.70
2023-03-15T06:39:52.226Z,30.95
2023-03-15T06:42:34.632Z,30.83
2023-03-15T06:45:32.479Z,30.86
2023-03-15T06:48:27.637Z,30.90
2023-03-15T06:51:10.061Z,31.10
2023-03-15T06:53:58.613Z,31.04
2023-03-15T06:56:42.705Z,31.07
2023-03-15T06:59:31.658Z,31.20
2023-03-15T07:02:32.730Z,31.39
2023-03-15T07:05:20.835Z,31.50
2023-03-15T07:08:02.674Z,31.21
2023-03-15T07:10:51.228Z,30.90
2023-03-15T07:13:32.968Z,30.82
2023-03-15T07:16:20.904Z,30.83
2023-03-15T07:19:03.667Z,30.85
2023-03-15T07:21:52.720Z,30.64
2023-03-15T07:24:35.579Z,30.60
2023-03-15T07:27:19.304Z,30.84
2023-03-15T07:30:08.674Z,30.54
2023-03-15T07:32:50.712Z,30.56
2023-03-15T07:35:39.683Z,30.36
2023-03-15T07:38:32.792Z,30.55
2023-03-15T07:41:15.639Z,30.79
2023-03-15T07:44:05.813Z,30.80
2023-03-15T07:46:54.692Z,30.70
2023-03-15T07:49:42.918Z,30.82
2023-03-15T07:52:24.617Z,30.54
2023-03-15T07:55:13.950Z,30.63
2023-03-15T07:57:55.695Z,30.50
2023-03-15T08:00:43.867Z,30.54
2023-03-15T08:03:25.734Z,30.47
2023-03-15T08:06:07.816Z,30.66
2023-03-15T08:08:56.622Z,30.68
2023-03-15T08:11:45.726Z,30.63
2023-03-15T08:14:27.973Z,30.87
2023-03-15T08:17:16.951Z,30.90
2023-03-15T08:19:58.678Z,30.98
2023-03-15T08:22:47.664Z,30.86
2023-03-15T08:25:32.008Z,30.70
2023-03-15T08:28:20.612Z,30.53
2023-03-15T08:31:09.710Z,30.66
2023-03-15T08:33:57.902Z,30.62
2023-03-15T08:36:39.725Z,30.64
2023-03-15T08:39:27.889Z,30.38
2023-03-15T08:42:09.625Z,30.33
2023-03-15T08:45:00.264Z,30.40
2023-03-15T08:47:42.711Z,30.21
2023-03-15T08:50:33.730Z,30.18
2023-03-15T08:53:15.725Z,30.14
2023-03-15T08:55:57.966Z,29.91
2023-03-15T08:58:46.690Z,30.04
2023-03-15T09:01:35.580Z,29.93
2023-03-15T09:04:18.605Z,30.08
2023-03-15T09:07:06.860Z,30.25
2023-03-15T09:09:49.575Z,30.19
2023-03-15T09:12:44.682Z,30.18
2023-03-15T09:15:32.755Z,30.10
2023-03-15T09:18:14.934Z,30.10
2023-03-15T09:20:57.778Z,30.07
2023-03-15T09:23:46.624Z,30.32
2023-03-15T09:26:34.834Z,30.28
2023-03-15T09:29:19.677Z,30.12
2023-03-15T09:32:09.631Z,30.15
2023-03-15T09:34:52.141Z,30.18
2023-03-15T09:37:40.686Z,30.24
2023-03-15T09:40:31.911Z,30.01
2023-03-15T09:43:21.570Z,29.98
2023-03-15T09:46:13.599Z,30.08
2023-03-15T09:49:56.499Z,30.03
2023-03-15T09:52:51.641Z,30.15
2023-03-15T09:55:34.792Z,30.17
2023-03-15T09:58:42.658Z,30.12
2023-03-15T10:01:25.947Z,30.05
2023-03-15T10:04:16.678Z,30.12
2023-03-15T10:07:03.834Z,30.00
2023-03-15T10:09:53.695Z,29.89
2023-03-15T10:12:44.835Z,29.98
2023-03-15T10:15:52.740Z,30.03
2023-03-15T10:19:04.872Z,30.04
2023-03-15T10:22:20.993Z,29.95
2023-03-15T10:25:17.053Z,29.85
2023-03-15T10:28:37.638Z,29.80
2023-03-15T10:31:43.440Z,29.71
2023-03-15T10:34:33.091Z,29.76
2023-03-15T10:37:17.667Z,29.80
2023-03-15T10:40:11.088Z,29.91
2023-03-15T10:42:54.770Z,30.03
2023-03-15T10:45:43.842Z,30.01
2023-03-15T10:48:41.561Z,30.03
2023-03-15T10:51:36.806Z,29.90
2023-03-15T10:54:26.651Z,29.89
2023-03-15T10:57:23.873Z,29.82
2023-03-15T11:00:24.638Z,29.78
2023-03-15T11:03:22.884Z,29.67
2023-03-15T11:06:06.701Z,29.65
2023-03-15T11:08:55.544Z,29.58
2023-03-15T11:11:44.696Z,29.54
2023-03-15T11:14:41.833Z,29.48
2023-03-15T11:17:38.702Z,29.42
2023-03-15T11:20:37.824Z,29.40
2023-03-15T11:23:28.944Z,29.34
2023-03-15T11:26:33.486Z,29.25
2023-03-15T11:29:35.740Z,29.16
2023-03-15T11:32:40.679Z,29.16
2023-03-15T11:35:45.134Z,29.04
2023-03-15T11:38:45.752Z,28.99
2023-03-15T11:41:36.758Z,28.86
2023-03-15T11:44:35.320Z,28.80
2023-03-15T11:47:48.605Z,28.72
2023-03-15T11:50:38.172Z,28.66
2023-03-15T11:53:24.611Z,28.65
2023-03-15T11:56:26.414Z,28.59
2023-03-15T11:59:24.673Z,28.52
2023-03-15T12:02:14.898Z,28.48
2023-03-15T12:05:17.644Z,28.43
2023-03-15T12:08:17.039Z,28.38
2023-03-15T12:11:06.699Z,28.34
2023-03-15T12:14:04.668Z,28.30
2023-03-15T12:16:56.615Z,28.23
2023-03-15T12:19:44.819Z,28.18
2023-03-15T12:22:27.624Z,28.11
2023-03-15T12:25:54.104Z,28.07
2023-03-15T12:28:56.656Z,28.00
2023-03-15T12:32:11.824Z,27.96
2023-03-15T12:35:00.615Z,27.93
2023-03-15T12:37:54.415Z,27.89
2023-03-15T12:41:08.638Z,27.86
2023-03-15T12:43:58.845Z,27.79
2023-03-15T12:46:53.673Z,27.77
2023-03-15T12:49:45.847Z,27.75
2023-03-15T12:52:27.638Z,27.66
2023-03-15T12:55:25.867Z,27.58
2023-03-15T12:58:12.618Z,27.57
2023-03-15T13:01:01.887Z,27.41
2023-03-15T13:03:47.514Z,27.38
2023-03-15T13:07:08.254Z,27.31
2023-03-15T13:10:17.700Z,27.22
2023-03-15T13:13:15.784Z,27.24
2023-03-15T13:16:24.784Z,27.20
2023-03-15T13:19:28.829Z,27.12
2023-03-15T13:22:32.644Z,27.21
2023-03-15T13:25:27.887Z,27.33
2023-03-15T13:28:21.672Z,27.32
2023-03-15T13:31:18.782Z,27.30
2023-03-15T13:34:11.669Z,27.27
2023-03-15T13:37:06.884Z,27.26
2023-03-15T13:40:03.655Z,27.25
2023-03-15T13:42:52.876Z,27.23
2023-03-15T13:45:34.618Z,27.17
2023-03-15T13:48:23.071Z,27.18
2023-03-15T13:51:23.675Z,27.19
2023-03-15T13:54:14.876Z,27.14
2023-03-15T13:57:14.659Z,27.12
2023-03-15T14:00:09.666Z,27.04
2023-03-15T14:02:51.877Z,27.02
2023-03-15T14:05:49.710Z,26.99
2023-03-15T14:08:47.899Z,26.96
2023-03-15T14:11:45.580Z,26.95
2023-03-15T14:14:33.621Z,26.81
2023-03-15T14:17:37.694Z,26.69
2023-03-15T14:20:25.405Z,26.68
2023-03-15T14:23:17.604Z,26.64
2023-03-15T14:26:09.715Z,26.54
2023-03-15T14:29:05.974Z,26.43
2023-03-15T14:31:53.710Z,26.40
2023-03-15T14:34:44.635Z,26.33
2023-03-15T14:37:53.924Z,26.30
2023-03-15T14:40:45.672Z,26.36
2023-03-15T14:43:27.772Z,26.24
2023-03-15T14:46:16.701Z,26.24
2023-03-15T14:49:11.676Z,25.82
2023-03-15T14:52:12.839Z,25.62
2023-03-15T14:54:57.603Z,25.86
2023-03-15T14:57:41.478Z,26.09
2023-03-15T15:00:32.684Z,26.26
2023-03-15T15:03:44.023Z,26.34
2023-03-15T15:06:25.680Z,26.27
2023-03-15T15:09:13.881Z,26.35
2023-03-15T15:11:56.052Z,26.24
2023-03-15T15:14:43.886Z,26.15
2023-03-15T15:17:25.677Z,26.14
2023-03-15T15:20:16.380Z,26.05
2023-03-15T15:22:57.717Z,26.16
2023-03-15T15:25:46.838Z,26.18
2023-03-15T15:28:35.469Z,26.19
2023-03-15T15:31:27.916Z,26.41
2023-03-15T15:34:09.602Z,26.13
2023-03-15T15:36:58.024Z,26.32
2023-03-15T15:39:40.582Z,26.33
2023-03-15T15:42:29.638Z,26.33
2023-03-15T15:45:19.079Z,26.29
2023-03-15T15:48:14.167Z,26.35
2023-03-15T15:50:55.462Z,26.45
2023-03-15T15:53:46.651Z,26.28
2023-03-15T15:56:36.153Z,26.36
2023-03-15T15:59:27.603Z,26.41
2023-03-15T16:02:22.966Z,26.59
2023-03-15T16:05:11.610Z,26.40
2023-03-15T16:07:54.512Z,26.27
2023-03-15T16:10:44.648Z,26.52
2023-03-15T16:13:33.801Z,26.06
2023-03-15T16:16:23.057Z,26.17
2023-03-15T16:19:10.973Z,25.84
2023-03-15T16:21:57.667Z,26.11
2023-03-15T16:24:47.802Z,26.16
2023-03-15T16:27:41.569Z,26.30
2023-03-15T16:30:46.374Z,25.01
2023-03-15T16:33:38.623Z,24.90
2023-03-15T16:36:29.667Z,25.02
2023-03-15T16:39:11.901Z,24.85
2023-03-15T16:42:00.633Z,24.66
2023-03-15T16:44:44.674Z,24.95
2023-03-15T16:47:40.556Z,24.49
2023-03-15T16:50:27.924Z,23.97
2023-03-15T16:53:15.668Z,23.98
2023-03-15T16:56:03.845Z,23.85
2023-03-15T16:58:45.617Z,23.56
2023-03-15T17:01:37.183Z,23.45
2023-03-15T17:04:19.806Z,23.44
2023-03-15T17:07:08.094Z,23.28
2023-03-15T17:09:56.732Z,23.07
2023-03-15T17:12:49.631Z,23.28
2023-03-15T17:15:36.835Z,23.01
2023-03-15T17:18:31.933Z,22.83
2023-03-15T17:21:27.514Z,22.75
2023-03-15T17:24:20.762Z,23.22
2023-03-15T17:27:04.206Z,23.39
2023-03-15T17:29:52.545Z,23.05
2023-03-15T17:32:34.903Z,22.96
2023-03-15T17:35:27.652Z,22.72
2023-03-15T17:38:22.605Z,22.58
2023-03-15T17:41:38.651Z,22.61
2023-03-15T17:44:20.759Z,22.40
2023-03-15T17:47:09.653Z,22.38
2023-03-15T17:50:04.627Z,22.68
2023-03-15T17:52:49.017Z,22.68
2023-03-15T17:55:42.601Z,22.44
2023-03-15T17:58:27.738Z,22.62
2023-03-15T18:01:20.837Z,22.64
2023-03-15T18:04:05.144Z,23.16
2023-03-15T18:06:53.737Z,23.39
2023-03-15T18:09:41.763Z,23.40
2023-03-15T18:12:25.588Z,23.39
2023-03-15T18:15:08.114Z,23.83
2023-03-15T18:17:56.640Z,23.65
2023-03-15T18:20:46.399Z,23.50
2023-03-15T18:23:27.711Z,23.51
2023-03-15T18:26:18.194Z,22.96
2023-03-15T18:28:59.566Z,22.40
2023-03-15T18:31:48.965Z,22.20
2023-03-15T18:34:30.639Z,22.14
2023-03-15T18:37:19.001Z,21.85
2023-03-15T18:40:01.859Z,21.81
2023-03-15T18:42:51.032Z,21.76
2023-03-15T18:45:38.657Z,21.80
2023-03-15T18:48:40.806Z,21.56
2023-03-15T18:51:32.698Z,21.59
2023-03-15T18:54:14.952Z,21.40
2023-03-15T18:57:03.726Z,21.43
2023-03-15T18:59:45.989Z,21.47
2023-03-15T19:02:34.655Z,21.35
2023-03-15T19:05:17.994Z,21.35
2023-03-15T19:08:06.632Z,21.27
2023-03-15T19:10:48.924Z,21.24
2023-03-15T19:13:37.635Z,21.30
2023-03-15T19:16:26.664Z,21.28
2023-03-15T19:19:14.872Z,21.14
2023-03-15T19:21:56.668Z,21.20
2023-03-15T19:24:44.910Z,21.21
2023-03-15T19:27:27.638Z,21.24
2023-03-15T19:30:21.733Z,21.27
2023-03-15T19:33:04.099Z,21.26
2023-03-15T19:35:52.649Z,21.27
2023-03-15T19:38:36.019Z,21.26
2023-03-15T19:41:24.942Z,21.29
2023-03-15T19:44:06.828Z,21.24
2023-03-15T19:46:55.650Z,21.27
2023-03-15T19:49:43.856Z,21.23
2023-03-15T19:52:25.661Z,21.21
2023-03-15T19:55:21.632Z,21.21
2023-03-15T19:58:03.645Z,21.18
2023-03-15T20:00:52.597Z,21.22
2023-03-15T20:03:40.953Z,21.16
2023-03-15T20:06:22.642Z,21.20
2023-03-15T20:09:12.131Z,21.15
2023-03-15T20:11:53.652Z,21.10
2023-03-15T20:14:42.603Z,21.13
2023-03-15T20:17:26.317Z,21.14
2023-03-15T20:20:18.684Z,21.17
2023-03-15T20:23:07.681Z,21.16
2023-03-15T20:25:51.004Z,21.13
2023-03-15T20:28:39.652Z,21.14
2023-03-15T20:31:29.843Z,21.15
2023-03-15T20:34:13.438Z,21.15
2023-03-15T20:37:03.194Z,21.11
2023-03-15T20:39:44.857Z,21.10
2023-03-15T20:42:33.645Z,21.10
2023-03-15T20:45:16.850Z,21.10
2023-03-15T20:48:06.246Z,21.05
2023-03-15T20:50:48.483Z,20.97
2023-03-15T20:53:36.671Z,20.95
2023-03-15T20:56:19.028Z,20.96
2023-03-15T20:59:07.551Z,20.95
2023-03-15T21:01:49.857Z,20.89
2023-03-15T21:04:38.754Z,20.91
2023-03-15T21:07:21.034Z,20.86
2023-03-15T21:10:09.617Z,20.82
2023-03-15T21:12:51.853Z,20.79
2023-03-15T21:15:41.630Z,20.79
2023-03-15T21:18:31.649Z,20.78
2023-03-15T21:21:13.777Z,20.69
2023-03-15T21:24:02.692Z,20.71
2023-03-15T21:26:47.730Z,20.69
2023-03-15T21:29:36.664Z,20.64
2023-03-15T21:32:24.941Z,20.61
2023-03-15T21:35:06.681Z,20.59
2023-03-15T21:37:56.919Z,20.51
2023-03-15T21:40:38.618Z,20.51
2023-03-15T21:43:27.923Z,20.48
2023-03-15T21:46:15.669Z,20.50
2023-03-15T21:49:10.648Z,20.44
2023-03-15T21:52:00.045Z,20.44
2023-03-15T21:54:42.836Z,20.34
2023-03-15T21:57:32.569Z,20.24
2023-03-15T22:00:27.610Z,20.23
2023-03-15T22:03:17.572Z,20.22
2023-03-15T22:05:59.644Z,20.19
2023-03-15T22:08:48.891Z,20.17
2023-03-15T22:11:30.582Z,20.22
2023-03-15T22:14:12.592Z,20.14
2023-03-15T22:17:01.684Z,20.18
2023-03-15T22:19:43.517Z,20.06
2023-03-15T22:22:32.587Z,20.11
2023-03-15T22:25:21.970Z,20.07
2023-03-15T22:28:03.570Z,20.05
2023-03-15T22:30:54.835Z,20.02
2023-03-15T22:33:36.552Z,19.97
2023-03-15T22:36:18.638Z,20.01
2023-03-15T22:39:09.984Z,19.98
2023-03-15T22:41:51.502Z,19.98
2023-03-15T22:44:39.557Z,19.96
2023-03-15T22:47:28.592Z,19.90
2023-03-15T22:50:21.706Z,19.92
2023-03-15T22:53:03.613Z,19.86
2023-03-15T22:55:51.776Z,19.80
2023-03-15T22:58:34.551Z,19.75
2023-03-15T23:01:16.669Z,19.77
2023-03-15T23:04:05.585Z,19.69
2023-03-15T23:06:47.509Z,19.71
2023-03-15T23:09:35.811Z,19.73
2023-03-15T23:12:33.777Z,19.73
2023-03-15T23:15:20.556Z,19.73
2023-03-15T23:18:02.603Z,19.66
2023-03-15T23:20:51.549Z,19.60
2023-03-15T23:23:40.630Z,19.55
2023-03-15T23:26:26.020Z,19.48
2023-03-15T23:29:23.617Z,19.40
2023-03-15T23:32:05.784Z,19.35
2023-03-15T23:34:54.660Z,19.32
2023-03-15T23:37:36.848Z,19.32
2023-03-15T23:40:26.909Z,19.31
2023-03-15T23:43:10.013Z,19.30
2023-03-15T23:46:03.672Z,19.30
2023-03-15T23:48:59.462Z,19.28
2023-03-15T23:51:47.644Z,19.29
2023-03-15T23:54:29.723Z,19.30
2023-03-15T23:57:20.588Z,19.29
